Дата Пункты Температура Давл., мм. Влажн., % Ветер Погодные явления
Воздуха Воды Направл. Скорость
04.05.15 02:00 Одесса 16.0 12.0 759 63 Пд 3 15 часов
04.05.15 11:00 Одесса 16.0 11.0 759 62 Пд-С 2 12 часов
04.05.15 08:00 Одесса 15.0 11.0 759 64 Пн-З 1 09 часов
04.05.15 05:00 Одесса 9.0 11.0 758 81 Пн-З 2 06 часов
04.05.15 02:00 Одесса 10.0 11.0 757 81 З 2 03 часа
03.05.15 08:00 Одесса 13.0 11.0 756 79 Пн-З 2 21 час
03.05.15 05:00 Одесса 14.0 11.0 755 83 Пн-З 2 18 часов
03.05.15 02:00 Одесса 14.0 11.0 754 95 Пн-З 3 15 часов
03.05.15 11:00 Одесса 12.0 10.0 753 100 Пд 2 12 часов
03.05.15 08:00 Одесса 13.0 10.0 753 97 Пд-З 1 09 часов
03.05.15 05:00 Одесса 12.0 9.0 752 98 Пд-З 3 06 часов
03.05.15 02:00 Одесса 11.0 9.0 752 99 Пд 4 03 часа
02.05.15 08:00 Одесса 11.0 9.0 754 99 Пд 3 21 час
02.05.15 05:00 Одесса 11.0 10.0 754 99 Пд 4 18 часов
02.05.15 02:00 Одесса 12.0 10.0 755 98 Пд 4 15 часов
02.05.15 11:00 Одесса 11.0 11.0 755 100 Пд 4 12 часов
02.05.15 08:00 Одесса 11.0 11.0 755 100 Пд 3 09 часов
02.05.15 05:00 Одесса 11.0 10.0 755 100 Пд-З 2 06 часов
02.05.15 02:00 Одесса 11.0 10.0 755 99 Пд-З 2 03 часа
01.05.15 08:00 Одесса 13.0 10.0 755 89 Пн 2 21 час
Количество строк
361 362 363 364 365 366 367 368 369 370
Page 361 of 448